ePrivacy and GPDR Cookie Consent by Cookie Consent
EmailTwitter


Surface observations / United Kingdom / EGUB (03658)

Regions: Quebec | Canada | USA | Europe | France | UK | Elsewhere
Station
Display
Info & Location for EGUB (03658) | Help decoding METAR

Weather Conditions observed on 2021/10/19 at 02:50 UTC at BENSON RAF, UK (EGUB)

Sky conditions: overcast.

Temperature: 17.0 Celsius.

Dewpoint: 16.0 Celsius.

Relative Humidity: 94%

Humidex 22.

Winds: South at 15 km/h or 8 knots.

Mean Sea level Pressure: 101.20 kilopascals.

Horizontal visibility: 6.21 statute miles or 9.94 kilometers.

Height of the Ceiling: 152 metres ( 500 feet ).

Coded METAR:

EGUB 190250Z AUTO 19008KT 9999 // OVC005/// 17/16 Q1012=